Item Display Status Inductive CT Sensor

Mooring Depth: 10 m

 

Deployed Sensor

  • Serial Number: 4185
  • NDBC Property Number: 24499
  • Start Date: 11/5/2018 (13:33:04 Z)
  • End Date: Currently Active
Water Temperature [°C]     6 entries per hour
Showing data from 11/12/2019 (07:00:00 Z) to 11/11/2019 (00:00:01 Z)
Previous Next [ Day | 3-Days | 7-Days ]
First Last
Prev [ Day | 3-Days | 7-Days ] Next
First Last

Start Time:     :
End Time:     :     
Time (in GMT) :00 :50 :40 :30 :20 :10
Previous Next [ Day | 3-Days | 7-Days ]
First Last
Prev [ Day | 3-Days | 7-Days ] Next
First Last


123 => good data
MM => data is determined as missing
-- => data not received/configured
Back to Top Back to Top
11/12/2019 07:00 to 6:10 24.054 24.042 24.064 24.059 24.070 24.073
11/12/2019 06:00 to 5:10 24.071 24.076 24.084 24.083 24.082 24.089
11/12/2019 05:00 to 4:10 24.071 24.090 24.077 24.097 24.091 24.089
11/12/2019 04:00 to 3:10 24.097 24.103 24.098 24.112 24.109 24.110
11/12/2019 03:00 to 2:10 24.099 24.106 24.111 24.105 24.120 24.125
11/12/2019 02:00 to 1:10 24.118 24.115 24.137 24.121 24.128 24.131
11/12/2019 01:00 to 0:10 24.134 24.140 24.140 24.152 24.163 24.146
11/12/2019 00:00 to 23:10 24.164 24.174 24.176 24.163 24.153 24.155
11/11/2019 23:00 to 22:10 24.150 24.168 24.163 24.146 24.145 24.139
11/11/2019 22:00 to 21:10 24.133 24.107 24.128 24.113 24.089 24.103
11/11/2019 21:00 to 20:10 24.085 24.065 24.088 24.098 24.090 24.072
11/11/2019 20:00 to 19:10 24.100 24.093 24.089 24.080 24.077 24.096
11/11/2019 19:00 to 18:10 24.049 24.043 24.032 24.078 24.056 24.021
11/11/2019 18:00 to 17:10 24.088 24.110 24.041 24.114 24.106 24.085
11/11/2019 17:00 to 16:10 24.091 24.087 24.109 24.077 24.097 24.100
11/11/2019 16:00 to 15:10 24.104 24.093 24.092 24.096 24.092 24.086
11/11/2019 15:00 to 14:10 24.108 24.097 24.110 24.109 24.098 24.092
11/11/2019 14:00 to 13:10 24.108 24.101 24.113 24.105 24.111 24.096
11/11/2019 13:00 to 12:10 24.119 24.116 24.120 24.119 24.121 24.124
11/11/2019 12:00 to 11:10 24.122 24.121 24.130 24.124 24.128 24.138
11/11/2019 11:00 to 10:10 24.128 24.133 24.135 24.132 24.145 24.137
11/11/2019 10:00 to 9:10 24.140 24.150 24.150 24.155 24.155 24.160
11/11/2019 09:00 to 8:10 24.155 24.161 24.158 24.164 24.166 24.169
11/11/2019 08:00 to 7:10 24.173 24.181 24.182 24.180 24.185 24.174
11/11/2019 07:00 to 6:10 24.195 24.189 24.195 24.190 24.194 24.191
11/11/2019 06:00 to 5:10 24.197 -- 24.198 24.200 24.203 24.211
11/11/2019 05:00 to 4:10 24.215 24.206 24.195 24.198 24.229 24.234
11/11/2019 04:00 to 3:10 24.237 24.226 24.239 24.227 24.230 24.242
11/11/2019 03:00 to 2:10 24.243 24.249 24.238 24.219 24.268 24.280
11/11/2019 02:00 to 1:10 24.275 24.289 24.291 24.289 24.312 24.316
11/11/2019 01:00 to 0:10 24.311 24.308 24.317 24.328 24.313 24.314

 

 

 

Conductivity [S/m]     6 entries per hour
Showing data from 11/12/2019 (07:00:00 Z) to 11/11/2019 (00:00:01 Z)
Previous Next [ Day | 3-Days | 7-Days ]
First Last
Prev [ Day | 3-Days | 7-Days ] Next
First Last

Start Time:     :
End Time:     :     
Time (in GMT) :00 :50 :40 :30 :20 :10
Previous Next [ Day | 3-Days | 7-Days ]
First Last
Prev [ Day | 3-Days | 7-Days ] Next
First Last


123 => good data
MM => data is determined as missing
-- => data not received/configured
Back to Top Back to Top
11/12/2019 07:00 to 6:10 5.19765 5.19615 5.19869 5.19833 5.19955 5.19980
11/12/2019 06:00 to 5:10 5.19957 5.20021 5.20122 5.20104 5.20112 5.20180
11/12/2019 05:00 to 4:10 5.19957 5.20208 5.20021 5.20277 5.20206 5.20198
11/12/2019 04:00 to 3:10 5.20292 5.20363 5.20292 5.20469 5.20426 5.20436
11/12/2019 03:00 to 2:10 5.20332 5.20385 5.20462 5.20391 5.20563 5.20616
11/12/2019 02:00 to 1:10 5.20523 5.20507 5.20766 5.20594 5.20670 5.20705
11/12/2019 01:00 to 0:10 5.20743 5.20799 5.20799 5.20939 5.21053 5.20868
11/12/2019 00:00 to 23:10 5.21081 5.21185 5.21211 5.21083 5.20957 5.20929
11/11/2019 23:00 to 22:10 5.20982 5.21117 5.21066 5.20906 5.20880 5.20792
11/11/2019 22:00 to 21:10 5.20733 5.20403 5.20705 5.20505 5.20256 5.20414
11/11/2019 21:00 to 20:10 5.20183 5.20046 5.20292 5.20327 5.20266 5.20071
11/11/2019 20:00 to 19:10 5.20383 5.20284 5.20264 5.20185 5.20178 5.20353
11/11/2019 19:00 to 18:10 5.19831 5.19800 5.19646 5.20160 5.19957 5.19509
11/11/2019 18:00 to 17:10 5.20302 5.20556 5.19734 5.20599 5.20551 5.20294
11/11/2019 17:00 to 16:10 5.20368 5.20325 5.20578 5.20218 5.20424 5.20444
11/11/2019 16:00 to 15:10 5.20528 5.20401 5.20388 5.20436 5.20391 5.20355
11/11/2019 15:00 to 14:10 5.20591 5.20449 5.20624 5.20604 5.20454 5.20398
11/11/2019 14:00 to 13:10 5.20596 5.20520 5.20660 5.20551 5.20637 5.20472
11/11/2019 13:00 to 12:10 5.20743 5.20708 5.20754 5.20764 5.20749 5.20792
11/11/2019 12:00 to 11:10 5.20779 5.20741 5.20855 5.20771 5.20845 5.20962
11/11/2019 11:00 to 10:10 5.20842 5.20913 5.20903 5.20898 5.21035 5.20939
11/11/2019 10:00 to 9:10 5.20972 5.21099 5.21091 5.21170 5.21168 5.21216
11/11/2019 09:00 to 8:10 5.21152 5.21251 5.21216 5.21261 5.21259 5.21310
11/11/2019 08:00 to 7:10 5.21366 5.21465 5.21457 5.21444 5.21488 5.21381
11/11/2019 07:00 to 6:10 5.21600 5.21559 5.21630 5.21546 5.21600 5.21574
11/11/2019 06:00 to 5:10 5.21643 5.21590 5.21671 5.21671 5.21668 5.21788
11/11/2019 05:00 to 4:10 5.21836 5.21770 5.21620 5.21635 5.22002 5.22060
11/11/2019 04:00 to 3:10 5.22065 5.21964 5.22093 5.21953 5.21984 5.22132
11/11/2019 03:00 to 2:10 5.22132 5.22223 5.22081 5.21882 5.22412 5.22560
11/11/2019 02:00 to 1:10 5.22509 5.22659 5.22674 5.22605 5.22883 5.22940
11/11/2019 01:00 to 0:10 5.22868 5.22855 5.22952 5.23065 5.22904 5.22906

 

 

 

Salinity [psu]     6 entries per hour
Showing data from 11/12/2019 (07:00:00 Z) to 11/11/2019 (00:00:01 Z)
Previous Next [ Day | 3-Days | 7-Days ]
First Last
Prev [ Day | 3-Days | 7-Days ] Next
First Last

Start Time:     :
End Time:     :     
Time (in GMT) :00 :50 :40 :30 :20 :10
Previous Next [ Day | 3-Days | 7-Days ]
First Last
Prev [ Day | 3-Days | 7-Days ] Next
First Last


123 => good data
MM => data is determined as missing
-- => data not received/configured
Back to Top Back to Top
11/12/2019 07:00 to 6:10 34.91 34.91 34.91 34.92 34.92 34.92
11/12/2019 06:00 to 5:10 34.92 34.92 34.92 34.92 34.92 34.92
11/12/2019 05:00 to 4:10 34.92 34.92 34.92 34.92 34.92 34.92
11/12/2019 04:00 to 3:10 34.92 34.92 34.92 34.92 34.92 34.92
11/12/2019 03:00 to 2:10 34.92 34.92 34.92 34.92 34.92 34.92
11/12/2019 02:00 to 1:10 34.92 34.92 34.93 34.92 34.92 34.92
11/12/2019 01:00 to 0:10 34.93 34.93 34.93 34.93 34.93 34.93
11/12/2019 00:00 to 23:10 34.93 34.93 34.93 34.93 34.93 34.92
11/11/2019 23:00 to 22:10 34.93 34.93 34.93 34.93 34.93 34.93
11/11/2019 22:00 to 21:10 34.93 34.92 34.93 34.92 34.92 34.93
11/11/2019 21:00 to 20:10 34.92 34.93 34.93 34.92 34.92 34.92
11/11/2019 20:00 to 19:10 34.93 34.92 34.92 34.93 34.93 34.93
11/11/2019 19:00 to 18:10 34.92 34.93 34.92 34.93 34.93 34.92
11/11/2019 18:00 to 17:10 34.93 34.93 34.92 34.93 34.93 34.93
11/11/2019 17:00 to 16:10 34.93 34.93 34.93 34.93 34.93 34.93
11/11/2019 16:00 to 15:10 34.93 34.93 34.93 34.93 34.93 34.93
11/11/2019 15:00 to 14:10 34.93 34.93 34.94 34.93 34.93 34.93
11/11/2019 14:00 to 13:10 34.93 34.93 34.94 34.93 34.94 34.93
11/11/2019 13:00 to 12:10 34.94 34.94 34.94 34.94 34.94 34.94
11/11/2019 12:00 to 11:10 34.94 34.94 34.94 34.94 34.94 34.94
11/11/2019 11:00 to 10:10 34.94 34.94 34.94 34.94 34.94 34.94
11/11/2019 10:00 to 9:10 34.94 34.94 34.94 34.94 34.94 34.94
11/11/2019 09:00 to 8:10 34.94 34.94 34.94 34.94 34.94 34.94
11/11/2019 08:00 to 7:10 34.94 34.94 34.94 34.94 34.94 34.94
11/11/2019 07:00 to 6:10 34.94 34.94 34.94 34.94 34.94 34.94
11/11/2019 06:00 to 5:10 34.94 -- 34.95 34.94 34.94 34.94
11/11/2019 05:00 to 4:10 34.94 34.95 34.94 34.94 34.95 34.95
11/11/2019 04:00 to 3:10 34.94 34.95 34.94 34.94 34.94 34.95
11/11/2019 03:00 to 2:10 34.95 34.95 34.95 34.95 34.95 34.95
11/11/2019 02:00 to 1:10 34.95 34.95 34.95 34.95 34.95 34.95
11/11/2019 01:00 to 0:10 34.95 34.95 34.95 34.95 34.95 34.95